sensor_id;sensor_type;location;lat;lon;timestamp;pressure;altitude;pressure_sealevel;temperature;humidity
25664;BME280;13522;50.018;20.014;2023-11-19T00:02:14;99444.45;;;2.22;100.00
25664;BME280;13522;50.018;20.014;2023-11-19T00:05:27;99441.95;;;2.19;100.00
25664;BME280;13522;50.018;20.014;2023-11-19T00:08:39;99436.93;;;2.14;100.00
25664;BME280;13522;50.018;20.014;2023-11-19T00:11:52;99433.23;;;2.18;100.00
25664;BME280;13522;50.018;20.014;2023-11-19T00:15:07;99433.23;;;2.18;100.00
25664;BME280;13522;50.018;20.014;2023-11-19T00:18:20;99432.41;;;2.18;100.00
25664;BME280;13522;50.018;20.014;2023-11-19T00:21:32;99428.00;;;2.18;100.00
25664;BME280;13522;50.018;20.014;2023-11-19T00:24:44;99427.87;;;2.21;100.00
25664;BME280;13522;50.018;20.014;2023-11-19T00:27:56;99421.64;;;2.24;100.00
25664;BME280;13522;50.018;20.014;2023-11-19T00:31:08;99426.88;;;2.24;100.00
25664;BME280;13522;50.018;20.014;2023-11-19T00:34:20;99412.14;;;2.21;100.00
25664;BME280;13522;50.018;20.014;2023-11-19T00:37:33;99402.52;;;2.22;100.00
25664;BME280;13522;50.018;20.014;2023-11-19T00:40:45;99407.59;;;2.25;100.00
25664;BME280;13522;50.018;20.014;2023-11-19T00:43:58;99389.34;;;2.23;100.00
25664;BME280;13522;50.018;20.014;2023-11-19T00:47:09;99380.70;;;2.21;100.00
25664;BME280;13522;50.018;20.014;2023-11-19T00:50:21;99371.90;;;2.22;100.00
25664;BME280;13522;50.018;20.014;2023-11-19T00:53:35;99375.30;;;2.24;100.00
25664;BME280;13522;50.018;20.014;2023-11-19T00:56:47;99373.61;;;2.23;100.00
25664;BME280;13522;50.018;20.014;2023-11-19T01:00:00;99366.75;;;2.21;100.00
25664;BME280;13522;50.018;20.014;2023-11-19T01:03:15;99360.42;;;2.25;100.00
25664;BME280;13522;50.018;20.014;2023-11-19T01:06:31;99362.83;;;2.29;100.00
25664;BME280;13522;50.018;20.014;2023-11-19T01:09:44;99357.72;;;2.26;100.00
25664;BME280;13522;50.018;20.014;2023-11-19T01:12:57;99358.97;;;2.19;100.00
25664;BME280;13522;50.018;20.014;2023-11-19T01:16:11;99355.49;;;2.19;100.00
25664;BME280;13522;50.018;20.014;2023-11-19T01:19:23;99349.56;;;2.15;100.00
25664;BME280;13522;50.018;20.014;2023-11-19T01:22:35;99354.72;;;2.17;100.00
25664;BME280;13522;50.018;20.014;2023-11-19T01:25:47;99349.88;;;2.09;100.00
25664;BME280;13522;50.018;20.014;2023-11-19T01:28:59;99353.70;;;2.02;100.00
25664;BME280;13522;50.018;20.014;2023-11-19T01:32:10;99362.50;;;2.01;100.00
25664;BME280;13522;50.018;20.014;2023-11-19T01:35:22;99361.26;;;2.08;100.00
25664;BME280;13522;50.018;20.014;2023-11-19T01:38:34;99343.55;;;2.13;100.00
25664;BME280;13522;50.018;20.014;2023-11-19T01:41:46;99349.39;;;2.18;100.00
25664;BME280;13522;50.018;20.014;2023-11-19T01:45:02;99348.48;;;2.19;100.00
25664;BME280;13522;50.018;20.014;2023-11-19T01:48:16;99346.64;;;2.21;100.00
25664;BME280;13522;50.018;20.014;2023-11-19T01:51:28;99344.16;;;2.18;100.00
25664;BME280;13522;50.018;20.014;2023-11-19T01:54:40;99336.55;;;2.14;100.00
25664;BME280;13522;50.018;20.014;2023-11-19T01:57:54;99328.91;;;2.09;100.00
25664;BME280;13522;50.018;20.014;2023-11-19T02:01:08;99319.97;;;2.13;100.00
25664;BME280;13522;50.018;20.014;2023-11-19T02:04:22;99309.50;;;2.13;100.00
25664;BME280;13522;50.018;20.014;2023-11-19T02:07:35;99311.17;;;2.14;100.00
25664;BME280;13522;50.018;20.014;2023-11-19T02:10:47;99314.73;;;2.13;100.00
25664;BME280;13522;50.018;20.014;2023-11-19T02:14:01;99301.64;;;2.13;100.00
25664;BME280;13522;50.018;20.014;2023-11-19T02:17:27;99304.25;;;2.13;100.00
25664;BME280;13522;50.018;20.014;2023-11-19T02:20:40;99302.55;;;2.12;100.00
25664;BME280;13522;50.018;20.014;2023-11-19T02:23:54;99293.91;;;2.10;100.00
25664;BME280;13522;50.018;20.014;2023-11-19T02:27:13;99282.92;;;2.04;100.00
25664;BME280;13522;50.018;20.014;2023-11-19T02:30:26;99259.09;;;2.08;100.00
25664;BME280;13522;50.018;20.014;2023-11-19T02:33:39;99253.54;;;2.14;100.00
25664;BME280;13522;50.018;20.014;2023-11-19T02:36:50;99236.82;;;2.17;100.00
25664;BME280;13522;50.018;20.014;2023-11-19T02:40:04;99238.53;;;2.18;100.00
25664;BME280;13522;50.018;20.014;2023-11-19T02:43:19;99229.73;;;2.19;100.00
25664;BME280;13522;50.018;20.014;2023-11-19T02:46:31;99219.25;;;2.19;100.00
25664;BME280;13522;50.018;20.014;2023-11-19T02:49:43;99209.53;;;2.21;100.00
25664;BME280;13522;50.018;20.014;2023-11-19T02:52:56;99216.63;;;2.19;100.00
25664;BME280;13522;50.018;20.014;2023-11-19T02:56:09;99214.10;;;2.17;100.00
25664;BME280;13522;50.018;20.014;2023-11-19T02:59:24;99207.64;;;2.07;100.00
25664;BME280;13522;50.018;20.014;2023-11-19T03:02:40;99202.86;;;1.98;100.00
25664;BME280;13522;50.018;20.014;2023-11-19T03:05:54;99199.92;;;2.04;100.00
25664;BME280;13522;50.018;20.014;2023-11-19T03:09:08;99192.02;;;2.06;100.00
25664;BME280;13522;50.018;20.014;2023-11-19T03:12:20;99169.52;;;2.02;100.00
25664;BME280;13522;50.018;20.014;2023-11-19T03:15:32;99163.25;;;2.04;100.00
25664;BME280;13522;50.018;20.014;2023-11-19T03:18:44;99162.58;;;2.01;100.00
25664;BME280;13522;50.018;20.014;2023-11-19T03:21:56;99152.28;;;1.98;100.00
25664;BME280;13522;50.018;20.014;2023-11-19T03:25:10;99151.56;;;1.94;100.00
25664;BME280;13522;50.018;20.014;2023-11-19T03:28:22;99145.41;;;1.95;100.00
25664;BME280;13522;50.018;20.014;2023-11-19T03:31:34;99148.03;;;1.95;100.00
25664;BME280;13522;50.018;20.014;2023-11-19T03:34:47;99135.12;;;1.92;100.00
25664;BME280;13522;50.018;20.014;2023-11-19T03:37:59;99130.02;;;1.89;100.00
25664;BME280;13522;50.018;20.014;2023-11-19T03:41:15;99142.03;;;1.93;100.00
25664;BME280;13522;50.018;20.014;2023-11-19T03:44:27;99132.50;;;1.92;100.00
25664;BME280;13522;50.018;20.014;2023-11-19T03:47:39;99133.41;;;1.91;100.00
25664;BME280;13522;50.018;20.014;2023-11-19T03:50:51;99125.73;;;1.88;100.00
25664;BME280;13522;50.018;20.014;2023-11-19T03:54:04;99124.25;;;1.83;100.00
25664;BME280;13522;50.018;20.014;2023-11-19T03:57:17;99108.55;;;1.83;100.00
25664;BME280;13522;50.018;20.014;2023-11-19T04:00:29;99097.30;;;1.81;100.00
25664;BME280;13522;50.018;20.014;2023-11-19T04:03:41;99100.95;;;1.78;100.00
25664;BME280;13522;50.018;20.014;2023-11-19T04:06:55;99087.69;;;1.81;100.00
25664;BME280;13522;50.018;20.014;2023-11-19T04:10:09;99071.13;;;1.81;100.00
25664;BME280;13522;50.018;20.014;2023-11-19T04:13:22;99069.36;;;1.81;100.00
25664;BME280;13522;50.018;20.014;2023-11-19T04:16:34;99078.16;;;1.80;100.00
25664;BME280;13522;50.018;20.014;2023-11-19T04:19:46;99074.77;;;1.78;100.00
25664;BME280;13522;50.018;20.014;2023-11-19T04:28:41;99051.80;;;1.83;100.00
25664;BME280;13522;50.018;20.014;2023-11-19T04:31:56;99045.97;;;1.78;100.00
25664;BME280;13522;50.018;20.014;2023-11-19T04:35:09;99045.88;;;1.80;100.00
25664;BME280;13522;50.018;20.014;2023-11-19T04:38:21;99047.64;;;1.79;100.00
25664;BME280;13522;50.018;20.014;2023-11-19T04:41:33;99041.50;;;1.80;100.00
25664;BME280;13522;50.018;20.014;2023-11-19T04:44:45;99039.64;;;1.82;100.00
25664;BME280;13522;50.018;20.014;2023-11-19T04:47:57;99025.61;;;1.83;100.00
25664;BME280;13522;50.018;20.014;2023-11-19T04:51:09;99007.38;;;1.82;100.00
25664;BME280;13522;50.018;20.014;2023-11-19T04:54:21;99008.80;;;1.87;100.00
25664;BME280;13522;50.018;20.014;2023-11-19T04:57:34;99004.18;;;1.92;100.00
25664;BME280;13522;50.018;20.014;2023-11-19T05:00:45;98990.39;;;1.89;100.00
25664;BME280;13522;50.018;20.014;2023-11-19T05:03:59;99000.04;;;1.88;100.00
25664;BME280;13522;50.018;20.014;2023-11-19T05:07:13;99008.98;;;1.84;100.00
25664;BME280;13522;50.018;20.014;2023-11-19T05:10:26;99003.90;;;1.81;100.00
25664;BME280;13522;50.018;20.014;2023-11-19T05:13:38;98996.23;;;1.78;100.00
25664;BME280;13522;50.018;20.014;2023-11-19T05:16:51;98999.42;;;1.83;100.00
25664;BME280;13522;50.018;20.014;2023-11-19T05:20:05;98993.43;;;1.81;100.00
25664;BME280;13522;50.018;20.014;2023-11-19T05:23:20;98983.47;;;1.72;100.00
25664;BME280;13522;50.018;20.014;2023-11-19T05:26:31;99001.89;;;1.86;100.00
25664;BME280;13522;50.018;20.014;2023-11-19T05:29:43;98998.52;;;1.84;100.00
25664;BME280;13522;50.018;20.014;2023-11-19T05:32:56;99006.42;;;1.83;100.00
25664;BME280;13522;50.018;20.014;2023-11-19T05:36:10;98997.14;;;1.77;100.00
25664;BME280;13522;50.018;20.014;2023-11-19T05:39:22;98998.14;;;1.74;100.00
25664;BME280;13522;50.018;20.014;2023-11-19T05:42:34;99000.84;;;1.73;100.00
25664;BME280;13522;50.018;20.014;2023-11-19T05:45:49;99000.70;;;1.76;100.00
25664;BME280;13522;50.018;20.014;2023-11-19T05:49:01;98998.47;;;1.68;100.00
25664;BME280;13522;50.018;20.014;2023-11-19T05:52:13;98983.52;;;1.70;100.00
25664;BME280;13522;50.018;20.014;2023-11-19T05:55:25;98971.47;;;1.68;100.00
25664;BME280;13522;50.018;20.014;2023-11-19T05:58:37;98957.28;;;1.56;100.00
25664;BME280;13522;50.018;20.014;2023-11-19T06:01:51;98953.20;;;1.51;100.00
25664;BME280;13522;50.018;20.014;2023-11-19T06:05:03;98961.81;;;1.53;100.00
25664;BME280;13522;50.018;20.014;2023-11-19T06:08:16;98951.67;;;1.47;100.00
25664;BME280;13522;50.018;20.014;2023-11-19T06:11:28;98944.00;;;1.44;100.00
25664;BME280;13522;50.018;20.014;2023-11-19T06:14:41;98937.06;;;1.43;100.00
25664;BME280;13522;50.018;20.014;2023-11-19T06:17:53;98962.64;;;1.38;100.00
25664;BME280;13522;50.018;20.014;2023-11-19T06:21:08;98959.94;;;1.39;100.00
25664;BME280;13522;50.018;20.014;2023-11-19T06:24:20;98956.41;;;1.40;100.00
25664;BME280;13522;50.018;20.014;2023-11-19T06:27:32;98935.82;;;1.50;100.00
25664;BME280;13522;50.018;20.014;2023-11-19T06:30:44;98951.86;;;1.59;100.00
25664;BME280;13522;50.018;20.014;2023-11-19T06:33:58;98949.83;;;1.64;100.00
25664;BME280;13522;50.018;20.014;2023-11-19T06:37:10;98957.34;;;1.70;100.00
25664;BME280;13522;50.018;20.014;2023-11-19T06:40:22;98956.25;;;1.74;100.00
25664;BME280;13522;50.018;20.014;2023-11-19T06:43:36;98959.30;;;1.83;100.00
25664;BME280;13522;50.018;20.014;2023-11-19T06:46:49;98952.63;;;1.77;100.00
25664;BME280;13522;50.018;20.014;2023-11-19T06:50:02;98955.09;;;1.80;100.00
25664;BME280;13522;50.018;20.014;2023-11-19T06:53:15;98948.01;;;1.82;100.00
25664;BME280;13522;50.018;20.014;2023-11-19T06:56:27;98938.02;;;1.89;100.00
25664;BME280;13522;50.018;20.014;2023-11-19T06:59:39;98931.43;;;1.97;100.00
25664;BME280;13522;50.018;20.014;2023-11-19T07:02:52;98932.76;;;2.04;100.00
25664;BME280;13522;50.018;20.014;2023-11-19T07:06:05;98916.80;;;2.09;100.00
25664;BME280;13522;50.018;20.014;2023-11-19T07:09:19;98905.05;;;2.16;100.00
25664;BME280;13522;50.018;20.014;2023-11-19T07:12:30;98907.58;;;2.17;100.00
25664;BME280;13522;50.018;20.014;2023-11-19T07:15:43;98907.58;;;2.17;100.00
25664;BME280;13522;50.018;20.014;2023-11-19T07:18:54;98894.83;;;2.11;100.00
25664;BME280;13522;50.018;20.014;2023-11-19T07:22:07;98885.42;;;2.23;100.00
25664;BME280;13522;50.018;20.014;2023-11-19T07:25:19;98881.69;;;2.27;100.00
25664;BME280;13522;50.018;20.014;2023-11-19T07:28:30;98864.01;;;2.30;100.00
25664;BME280;13522;50.018;20.014;2023-11-19T07:31:43;98857.36;;;2.25;100.00
25664;BME280;13522;50.018;20.014;2023-11-19T07:34:55;98866.27;;;2.36;100.00
25664;BME280;13522;50.018;20.014;2023-11-19T07:38:07;98855.27;;;2.45;100.00
25664;BME280;13522;50.018;20.014;2023-11-19T07:41:19;98870.80;;;2.48;100.00
25664;BME280;13522;50.018;20.014;2023-11-19T07:44:31;98879.15;;;2.55;100.00
25664;BME280;13522;50.018;20.014;2023-11-19T07:47:43;98897.04;;;2.62;100.00
25664;BME280;13522;50.018;20.014;2023-11-19T07:50:57;98892.35;;;2.68;100.00
25664;BME280;13522;50.018;20.014;2023-11-19T07:54:09;98882.45;;;2.73;100.00
25664;BME280;13522;50.018;20.014;2023-11-19T07:57:21;98868.39;;;2.74;100.00
25664;BME280;13522;50.018;20.014;2023-11-19T08:00:36;98865.33;;;2.81;100.00
25664;BME280;13522;50.018;20.014;2023-11-19T08:03:48;98857.64;;;2.78;100.00
25664;BME280;13522;50.018;20.014;2023-11-19T08:07:02;98848.28;;;2.88;100.00
25664;BME280;13522;50.018;20.014;2023-11-19T08:10:14;98842.77;;;2.93;100.00
25664;BME280;13522;50.018;20.014;2023-11-19T08:13:26;98834.52;;;2.99;100.00
25664;BME280;13522;50.018;20.014;2023-11-19T08:16:40;98831.96;;;2.97;100.00
25664;BME280;13522;50.018;20.014;2023-11-19T08:19:52;98834.95;;;3.05;100.00
25664;BME280;13522;50.018;20.014;2023-11-19T08:23:06;98819.89;;;3.09;100.00
25664;BME280;13522;50.018;20.014;2023-11-19T08:26:19;98808.34;;;3.11;100.00
25664;BME280;13522;50.018;20.014;2023-11-19T08:29:31;98804.16;;;3.09;100.00
25664;BME280;13522;50.018;20.014;2023-11-19T08:32:43;98797.03;;;3.11;100.00
25664;BME280;13522;50.018;20.014;2023-11-19T08:35:55;98782.67;;;3.16;100.00
25664;BME280;13522;50.018;20.014;2023-11-19T08:39:09;98787.82;;;3.18;100.00
25664;BME280;13522;50.018;20.014;2023-11-19T08:42:23;98797.65;;;3.28;100.00
25664;BME280;13522;50.018;20.014;2023-11-19T08:45:35;98799.42;;;3.28;100.00
25664;BME280;13522;50.018;20.014;2023-11-19T08:48:47;98804.28;;;3.34;100.00
25664;BME280;13522;50.018;20.014;2023-11-19T08:52:01;98791.52;;;3.42;100.00
25664;BME280;13522;50.018;20.014;2023-11-19T08:55:14;98790.03;;;3.38;100.00
25664;BME280;13522;50.018;20.014;2023-11-19T08:58:26;98782.51;;;3.46;100.00
25664;BME280;13522;50.018;20.014;2023-11-19T09:01:38;98777.50;;;3.56;100.00
25664;BME280;13522;50.018;20.014;2023-11-19T09:04:50;98774.98;;;3.54;100.00
25664;BME280;13522;50.018;20.014;2023-11-19T09:08:03;98779.38;;;3.53;100.00
25664;BME280;13522;50.018;20.014;2023-11-19T09:11:15;98776.86;;;3.52;100.00
25664;BME280;13522;50.018;20.014;2023-11-19T09:14:28;98776.65;;;3.55;100.00
25664;BME280;13522;50.018;20.014;2023-11-19T09:17:42;98774.77;;;3.57;100.00
25664;BME280;13522;50.018;20.014;2023-11-19T09:20:57;98753.98;;;3.54;100.00
25664;BME280;13522;50.018;20.014;2023-11-19T09:24:10;98759.76;;;3.59;100.00
25664;BME280;13522;50.018;20.014;2023-11-19T09:27:22;98743.66;;;3.51;100.00
25664;BME280;13522;50.018;20.014;2023-11-19T09:30:34;98731.48;;;3.50;100.00
25664;BME280;13522;50.018;20.014;2023-11-19T09:33:46;98715.13;;;3.59;100.00
25664;BME280;13522;50.018;20.014;2023-11-19T09:36:58;98711.69;;;3.71;100.00
25664;BME280;13522;50.018;20.014;2023-11-19T09:40:12;98703.62;;;3.74;100.00
25664;BME280;13522;50.018;20.014;2023-11-19T09:43:25;98696.67;;;3.73;100.00
25664;BME280;13522;50.018;20.014;2023-11-19T09:46:39;98701.07;;;3.73;100.00
25664;BME280;13522;50.018;20.014;2023-11-19T09:49:54;98691.64;;;3.70;100.00
25664;BME280;13522;50.018;20.014;2023-11-19T09:53:06;98687.31;;;3.69;100.00
25664;BME280;13522;50.018;20.014;2023-11-19T09:56:19;98673.88;;;3.74;100.00
25664;BME280;13522;50.018;20.014;2023-11-19T09:59:32;98683.68;;;3.84;100.00
25664;BME280;13522;50.018;20.014;2023-11-19T10:02:46;98678.73;;;4.05;100.00
25664;BME280;13522;50.018;20.014;2023-11-19T10:05:59;98682.63;;;4.37;100.00
25664;BME280;13522;50.018;20.014;2023-11-19T10:09:13;98668.01;;;4.33;99.78
25664;BME280;13522;50.018;20.014;2023-11-19T10:12:25;98665.27;;;4.22;100.00
25664;BME280;13522;50.018;20.014;2023-11-19T10:15:38;98654.86;;;4.33;100.00
25664;BME280;13522;50.018;20.014;2023-11-19T10:18:51;98639.27;;;4.55;100.00
25664;BME280;13522;50.018;20.014;2023-11-19T10:22:06;98638.72;;;4.63;99.23
25664;BME280;13522;50.018;20.014;2023-11-19T10:25:27;98628.69;;;4.68;99.36
25664;BME280;13522;50.018;20.014;2023-11-19T10:28:41;98622.09;;;4.62;99.40
25664;BME280;13522;50.018;20.014;2023-11-19T10:31:58;98616.06;;;4.73;99.32
25664;BME280;13522;50.018;20.014;2023-11-19T10:35:13;98608.62;;;4.67;96.59
25664;BME280;13522;50.018;20.014;2023-11-19T10:38:25;98601.50;;;4.80;99.60
25664;BME280;13522;50.018;20.014;2023-11-19T10:41:38;98594.78;;;4.76;95.21
25664;BME280;13522;50.018;20.014;2023-11-19T10:44:50;98589.31;;;4.79;95.00
25664;BME280;13522;50.018;20.014;2023-11-19T10:48:04;98587.86;;;4.75;94.55
25664;BME280;13522;50.018;20.014;2023-11-19T10:51:19;98564.23;;;4.86;95.12
25664;BME280;13522;50.018;20.014;2023-11-19T10:54:32;98557.51;;;4.82;95.23
25664;BME280;13522;50.018;20.014;2023-11-19T10:57:47;98550.42;;;4.71;94.51
25664;BME280;13522;50.018;20.014;2023-11-19T11:01:03;98532.34;;;4.67;95.20
25664;BME280;13522;50.018;20.014;2023-11-19T11:04:22;98531.73;;;4.63;94.24
25664;BME280;13522;50.018;20.014;2023-11-19T11:07:37;98532.95;;;4.70;95.09
25664;BME280;13522;50.018;20.014;2023-11-19T11:10:54;98531.38;;;4.68;95.45
25664;BME280;13522;50.018;20.014;2023-11-19T11:14:08;98512.96;;;4.68;94.51
25664;BME280;13522;50.018;20.014;2023-11-19T11:17:24;98506.04;;;4.67;95.65
25664;BME280;13522;50.018;20.014;2023-11-19T11:20:39;98490.98;;;4.69;95.12
25664;BME280;13522;50.018;20.014;2023-11-19T11:24:13;98482.38;;;4.67;95.48
25664;BME280;13522;50.018;20.014;2023-11-19T11:31:20;98474.15;;;4.71;96.91
25664;BME280;13522;50.018;20.014;2023-11-19T11:34:55;98477.86;;;4.80;97.87
25664;BME280;13522;50.018;20.014;2023-11-19T11:38:15;98467.25;;;4.81;95.88
25664;BME280;13522;50.018;20.014;2023-11-19T11:41:31;98464.95;;;4.77;95.78
25664;BME280;13522;50.018;20.014;2023-11-19T11:45:02;98449.77;;;4.80;95.78
25664;BME280;13522;50.018;20.014;2023-11-19T11:48:20;98431.02;;;4.85;97.39
25664;BME280;13522;50.018;20.014;2023-11-19T11:52:04;98440.55;;;4.75;95.40
25664;BME280;13522;50.018;20.014;2023-11-19T11:55:18;98442.22;;;4.76;94.82
25664;BME280;13522;50.018;20.014;2023-11-19T11:58:35;98442.01;;;4.79;96.96
25664;BME280;13522;50.018;20.014;2023-11-19T12:02:00;98447.00;;;4.71;95.62
25664;BME280;13522;50.018;20.014;2023-11-19T12:05:13;98435.75;;;4.69;97.31
25664;BME280;13522;50.018;20.014;2023-11-19T12:08:29;98423.78;;;4.65;98.96
25664;BME280;13522;50.018;20.014;2023-11-19T12:11:49;98428.75;;;4.46;100.00
25664;BME280;13522;50.018;20.014;2023-11-19T12:15:07;98413.63;;;4.36;100.00
25664;BME280;13522;50.018;20.014;2023-11-19T12:18:22;98413.88;;;4.33;100.00
25664;BME280;13522;50.018;20.014;2023-11-19T12:21:36;98409.55;;;4.32;100.00
25664;BME280;13522;50.018;20.014;2023-11-19T12:24:48;98398.16;;;4.21;100.00
25664;BME280;13522;50.018;20.014;2023-11-19T12:28:01;98397.76;;;4.14;100.00
25664;BME280;13522;50.018;20.014;2023-11-19T12:31:14;98395.20;;;4.02;100.00
25664;BME280;13522;50.018;20.014;2023-11-19T12:34:26;98380.98;;;4.04;100.00
25664;BME280;13522;50.018;20.014;2023-11-19T12:37:47;98373.02;;;4.06;100.00
25664;BME280;13522;50.018;20.014;2023-11-19T13:02:51;98352.65;;;3.37;100.00
25664;BME280;13522;50.018;20.014;2023-11-19T13:06:05;98352.58;;;3.26;100.00
25664;BME280;13522;50.018;20.014;2023-11-19T13:09:25;98343.17;;;3.11;100.00
25664;BME280;13522;50.018;20.014;2023-11-19T13:12:37;98338.86;;;3.10;100.00
25664;BME280;13522;50.018;20.014;2023-11-19T13:15:49;98329.09;;;3.12;100.00
25664;BME280;13522;50.018;20.014;2023-11-19T13:19:03;98331.95;;;3.09;100.00
25664;BME280;13522;50.018;20.014;2023-11-19T13:22:16;98320.73;;;3.07;100.00
25664;BME280;13522;50.018;20.014;2023-11-19T13:28:29;98320.06;;;3.16;100.00
25664;BME280;13522;50.018;20.014;2023-11-19T13:31:41;98317.88;;;3.10;100.00
25664;BME280;13522;50.018;20.014;2023-11-19T13:34:54;98312.86;;;3.07;100.00
25664;BME280;13522;50.018;20.014;2023-11-19T13:38:06;98309.07;;;3.11;100.00
25664;BME280;13522;50.018;20.014;2023-11-19T13:41:19;98308.11;;;3.12;100.00
25664;BME280;13522;50.018;20.014;2023-11-19T13:44:32;98295.95;;;3.11;100.00
25664;BME280;13522;50.018;20.014;2023-11-19T13:47:45;98295.11;;;3.10;100.00
25664;BME280;13522;50.018;20.014;2023-11-19T13:50:57;98303.09;;;3.09;100.00
25664;BME280;13522;50.018;20.014;2023-11-19T13:54:10;98267.13;;;2.86;100.00
25664;BME280;13522;50.018;20.014;2023-11-19T13:57:22;98297.94;;;3.07;100.00
25664;BME280;13522;50.018;20.014;2023-11-19T14:00:34;98301.63;;;3.05;100.00
25664;BME280;13522;50.018;20.014;2023-11-19T14:03:48;98294.27;;;3.10;100.00
25664;BME280;13522;50.018;20.014;2023-11-19T14:07:00;98293.42;;;3.09;100.00
25664;BME280;13522;50.018;20.014;2023-11-19T14:10:12;98291.88;;;3.07;100.00
25664;BME280;13522;50.018;20.014;2023-11-19T14:13:25;98297.50;;;3.13;100.00
25664;BME280;13522;50.018;20.014;2023-11-19T14:16:37;98293.22;;;3.12;100.00
25664;BME280;13522;50.018;20.014;2023-11-19T14:22:49;98286.63;;;3.07;100.00
25664;BME280;13522;50.018;20.014;2023-11-19T14:26:01;98282.20;;;3.07;100.00
25664;BME280;13522;50.018;20.014;2023-11-19T14:29:14;98278.33;;;3.13;100.00
25664;BME280;13522;50.018;20.014;2023-11-19T14:32:26;98273.81;;;3.15;100.00
25664;BME280;13522;50.018;20.014;2023-11-19T14:35:38;98269.49;;;3.14;100.00
25664;BME280;13522;50.018;20.014;2023-11-19T14:38:50;98271.19;;;3.15;100.00
25664;BME280;13522;50.018;20.014;2023-11-19T14:42:05;98267.83;;;3.13;100.00
25664;BME280;13522;50.018;20.014;2023-11-19T14:45:17;98264.48;;;3.11;100.00
25664;BME280;13522;50.018;20.014;2023-11-19T14:48:29;98264.56;;;3.09;100.00
25664;BME280;13522;50.018;20.014;2023-11-19T14:51:41;98264.97;;;3.16;100.00
25664;BME280;13522;50.018;20.014;2023-11-19T14:54:54;98268.15;;;3.08;100.00
25664;BME280;13522;50.018;20.014;2023-11-19T14:58:06;98264.91;;;3.05;100.00
25664;BME280;13522;50.018;20.014;2023-11-19T15:01:22;98262.35;;;3.16;100.00
25664;BME280;13522;50.018;20.014;2023-11-19T15:04:34;98254.72;;;3.13;100.00
25664;BME280;13522;50.018;20.014;2023-11-19T15:08:15;98250.20;;;3.15;100.00
25664;BME280;13522;50.018;20.014;2023-11-19T15:11:27;98252.82;;;3.15;100.00
25664;BME280;13522;50.018;20.014;2023-11-19T15:14:39;98239.70;;;3.15;100.00
25664;BME280;13522;50.018;20.014;2023-11-19T15:17:51;98252.47;;;3.19;100.00
25664;BME280;13522;50.018;20.014;2023-11-19T15:21:04;98241.04;;;3.20;100.00
25664;BME280;13522;50.018;20.014;2023-11-19T15:24:17;98241.65;;;3.24;100.00
25664;BME280;13522;50.018;20.014;2023-11-19T15:27:29;98236.11;;;3.16;100.00
25664;BME280;13522;50.018;20.014;2023-11-19T15:30:41;98234.95;;;3.20;100.00
25664;BME280;13522;50.018;20.014;2023-11-19T15:33:53;98225.50;;;3.17;100.00
25664;BME280;13522;50.018;20.014;2023-11-19T15:37:06;98231.39;;;3.21;100.00
25664;BME280;13522;50.018;20.014;2023-11-19T15:40:20;98223.41;;;3.22;100.00
25664;BME280;13522;50.018;20.014;2023-11-19T15:43:33;98223.61;;;3.19;100.00
25664;BME280;13522;50.018;20.014;2023-11-19T15:46:45;98217.55;;;3.19;100.00
25664;BME280;13522;50.018;20.014;2023-11-19T15:49:57;98220.90;;;3.21;100.00
25664;BME280;13522;50.018;20.014;2023-11-19T15:53:10;98216.26;;;3.24;100.00
25664;BME280;13522;50.018;20.014;2023-11-19T15:56:24;98212.67;;;3.25;100.00
25664;BME280;13522;50.018;20.014;2023-11-19T15:59:37;98214.73;;;3.33;100.00
25664;BME280;13522;50.018;20.014;2023-11-19T16:02:49;98207.38;;;3.38;100.00
25664;BME280;13522;50.018;20.014;2023-11-19T16:06:03;98210.73;;;3.40;100.00
25664;BME280;13522;50.018;20.014;2023-11-19T16:09:16;98208.10;;;3.40;100.00
25664;BME280;13522;50.018;20.014;2023-11-19T16:12:29;98216.47;;;3.45;100.00
25664;BME280;13522;50.018;20.014;2023-11-19T16:15:41;98215.53;;;3.46;100.00
25664;BME280;13522;50.018;20.014;2023-11-19T16:18:53;98216.13;;;3.49;100.00
25664;BME280;13522;50.018;20.014;2023-11-19T16:22:05;98207.41;;;3.49;100.00
25664;BME280;13522;50.018;20.014;2023-11-19T16:25:19;98208.59;;;3.45;100.00
25664;BME280;13522;50.018;20.014;2023-11-19T16:28:32;98213.75;;;3.46;100.00
25664;BME280;13522;50.018;20.014;2023-11-19T16:31:54;98204.06;;;3.47;100.00
25664;BME280;13522;50.018;20.014;2023-11-19T16:35:08;98210.04;;;3.49;100.00
25664;BME280;13522;50.018;20.014;2023-11-19T16:38:20;98194.92;;;3.53;100.00
25664;BME280;13522;50.018;20.014;2023-11-19T16:41:33;98194.80;;;3.54;100.00
25664;BME280;13522;50.018;20.014;2023-11-19T16:44:47;98195.53;;;3.56;100.00
25664;BME280;13522;50.018;20.014;2023-11-19T16:48:00;98197.64;;;3.51;100.00
25664;BME280;13522;50.018;20.014;2023-11-19T16:51:14;98194.08;;;3.52;100.00
25664;BME280;13522;50.018;20.014;2023-11-19T16:54:27;98189.28;;;3.46;100.00
25664;BME280;13522;50.018;20.014;2023-11-19T16:57:40;98177.09;;;3.45;100.00
25664;BME280;13522;50.018;20.014;2023-11-19T17:00:54;98181.29;;;3.47;100.00
25664;BME280;13522;50.018;20.014;2023-11-19T17:04:06;98185.23;;;3.53;100.00
25664;BME280;13522;50.018;20.014;2023-11-19T17:07:19;98183.94;;;3.59;100.00
25664;BME280;13522;50.018;20.014;2023-11-19T17:10:34;98183.80;;;3.49;100.00
25664;BME280;13522;50.018;20.014;2023-11-19T17:13:58;98186.20;;;3.52;100.00
25664;BME280;13522;50.018;20.014;2023-11-19T17:17:15;98186.69;;;3.57;100.00
25664;BME280;13522;50.018;20.014;2023-11-19T17:20:29;98187.66;;;3.56;100.00
25664;BME280;13522;50.018;20.014;2023-11-19T17:23:43;98181.22;;;3.60;100.00
25664;BME280;13522;50.018;20.014;2023-11-19T17:27:05;98187.92;;;3.64;100.00
25664;BME280;13522;50.018;20.014;2023-11-19T17:33:23;98183.88;;;3.71;100.00